sensor_id;sensor_type;location;lat;lon;timestamp;temperature;humidity
68189;DHT22;66299;47.514;19.218;2023-04-01T00:01:35;8.59;98.14
68189;DHT22;66299;47.514;19.218;2023-04-01T00:04:05;8.54;98.35
68189;DHT22;66299;47.514;19.218;2023-04-01T00:06:37;8.51;98.45
68189;DHT22;66299;47.514;19.218;2023-04-01T00:09:07;8.51;98.51
68189;DHT22;66299;47.514;19.218;2023-04-01T00:11:37;8.50;98.54
68189;DHT22;66299;47.514;19.218;2023-04-01T00:14:05;8.51;98.25
68189;DHT22;66299;47.514;19.218;2023-04-01T00:16:34;8.55;98.29
68189;DHT22;66299;47.514;19.218;2023-04-01T00:19:02;8.48;98.55
68189;DHT22;66299;47.514;19.218;2023-04-01T00:21:32;8.47;98.75
68189;DHT22;66299;47.514;19.218;2023-04-01T00:24:01;8.52;98.45
68189;DHT22;66299;47.514;19.218;2023-04-01T00:26:30;8.44;98.62
68189;DHT22;66299;47.514;19.218;2023-04-01T00:28:59;8.41;98.90
68189;DHT22;66299;47.514;19.218;2023-04-01T00:31:28;8.34;99.13
68189;DHT22;66299;47.514;19.218;2023-04-01T00:33:57;8.38;98.91
68189;DHT22;66299;47.514;19.218;2023-04-01T00:36:26;8.36;99.07
68189;DHT22;66299;47.514;19.218;2023-04-01T00:38:57;8.33;99.26
68189;DHT22;66299;47.514;19.218;2023-04-01T00:41:25;8.34;99.05
68189;DHT22;66299;47.514;19.218;2023-04-01T00:44:17;8.23;99.26
68189;DHT22;66299;47.514;19.218;2023-04-01T00:46:46;8.21;99.78
68189;DHT22;66299;47.514;19.218;2023-04-01T00:49:17;8.21;99.75
68189;DHT22;66299;47.514;19.218;2023-04-01T00:51:49;8.14;99.68
68189;DHT22;66299;47.514;19.218;2023-04-01T00:54:21;8.19;99.97
68189;DHT22;66299;47.514;19.218;2023-04-01T00:56:52;8.10;99.74
68189;DHT22;66299;47.514;19.218;2023-04-01T00:59:25;8.10;99.99
68189;DHT22;66299;47.514;19.218;2023-04-01T01:01:54;8.00;99.87
68189;DHT22;66299;47.514;19.218;2023-04-01T01:04:24;7.96;99.98
68189;DHT22;66299;47.514;19.218;2023-04-01T01:07:03;7.93;99.99
68189;DHT22;66299;47.514;19.218;2023-04-01T01:09:43;8.00;99.99
68189;DHT22;66299;47.514;19.218;2023-04-01T01:12:17;8.02;99.99
68189;DHT22;66299;47.514;19.218;2023-04-01T01:15:00;8.03;99.99
68189;DHT22;66299;47.514;19.218;2023-04-01T01:17:38;7.99;99.99
68189;DHT22;66299;47.514;19.218;2023-04-01T01:23:41;8.02;99.99
68189;DHT22;66299;47.514;19.218;2023-04-01T01:29:15;8.10;99.99
68189;DHT22;66299;47.514;19.218;2023-04-01T01:31:55;8.10;99.99
68189;DHT22;66299;47.514;19.218;2023-04-01T01:34:29;8.02;99.99
68189;DHT22;66299;47.514;19.218;2023-04-01T01:37:03;8.04;99.99
68189;DHT22;66299;47.514;19.218;2023-04-01T01:39:34;8.06;99.99
68189;DHT22;66299;47.514;19.218;2023-04-01T01:42:10;8.10;99.99
68189;DHT22;66299;47.514;19.218;2023-04-01T01:44:39;8.11;99.99
68189;DHT22;66299;47.514;19.218;2023-04-01T01:47:09;8.17;99.99
68189;DHT22;66299;47.514;19.218;2023-04-01T01:49:39;8.17;99.99
68189;DHT22;66299;47.514;19.218;2023-04-01T01:52:10;8.16;99.99
68189;DHT22;66299;47.514;19.218;2023-04-01T01:54:47;8.19;99.99
68189;DHT22;66299;47.514;19.218;2023-04-01T01:57:17;8.04;99.99
68189;DHT22;66299;47.514;19.218;2023-04-01T01:59:47;7.92;99.99
68189;DHT22;66299;47.514;19.218;2023-04-01T02:02:17;7.93;99.99
68189;DHT22;66299;47.514;19.218;2023-04-01T02:04:46;7.92;99.99
68189;DHT22;66299;47.514;19.218;2023-04-01T02:07:19;7.87;99.99
68189;DHT22;66299;47.514;19.218;2023-04-01T02:09:49;7.87;99.99
68189;DHT22;66299;47.514;19.218;2023-04-01T02:12:19;7.93;99.99
68189;DHT22;66299;47.514;19.218;2023-04-01T02:14:52;8.02;99.99
68189;DHT22;66299;47.514;19.218;2023-04-01T02:17:22;8.02;99.99
68189;DHT22;66299;47.514;19.218;2023-04-01T02:19:56;8.10;99.99
68189;DHT22;66299;47.514;19.218;2023-04-01T02:22:29;8.14;99.99
68189;DHT22;66299;47.514;19.218;2023-04-01T02:25:04;8.17;99.99
68189;DHT22;66299;47.514;19.218;2023-04-01T02:27:35;8.19;99.99
68189;DHT22;66299;47.514;19.218;2023-04-01T02:30:04;8.11;99.99
68189;DHT22;66299;47.514;19.218;2023-04-01T02:32:33;8.13;99.99
68189;DHT22;66299;47.514;19.218;2023-04-01T02:35:09;8.06;99.99
68189;DHT22;66299;47.514;19.218;2023-04-01T02:37:40;8.06;99.99
68189;DHT22;66299;47.514;19.218;2023-04-01T02:40:12;7.93;99.99
68189;DHT22;66299;47.514;19.218;2023-04-01T02:42:43;7.96;99.99
68189;DHT22;66299;47.514;19.218;2023-04-01T02:45:13;7.86;99.99
68189;DHT22;66299;47.514;19.218;2023-04-01T02:47:42;7.78;99.99
68189;DHT22;66299;47.514;19.218;2023-04-01T02:50:11;7.72;99.99
68189;DHT22;66299;47.514;19.218;2023-04-01T02:52:43;7.66;99.99
68189;DHT22;66299;47.514;19.218;2023-04-01T02:55:11;7.72;99.99
68189;DHT22;66299;47.514;19.218;2023-04-01T02:57:40;7.75;99.99
68189;DHT22;66299;47.514;19.218;2023-04-01T03:00:15;7.71;99.99
68189;DHT22;66299;47.514;19.218;2023-04-01T03:02:43;7.79;99.99
68189;DHT22;66299;47.514;19.218;2023-04-01T03:05:14;7.76;99.99
68189;DHT22;66299;47.514;19.218;2023-04-01T03:07:44;7.83;99.99
68189;DHT22;66299;47.514;19.218;2023-04-01T03:10:14;7.78;99.99
68189;DHT22;66299;47.514;19.218;2023-04-01T03:12:43;7.83;99.99
68189;DHT22;66299;47.514;19.218;2023-04-01T03:15:12;7.78;99.99
68189;DHT22;66299;47.514;19.218;2023-04-01T03:17:42;7.81;99.99
68189;DHT22;66299;47.514;19.218;2023-04-01T03:20:11;7.82;99.99
68189;DHT22;66299;47.514;19.218;2023-04-01T03:22:39;7.82;99.99
68189;DHT22;66299;47.514;19.218;2023-04-01T03:25:10;7.83;99.99
68189;DHT22;66299;47.514;19.218;2023-04-01T03:27:39;7.76;99.99
68189;DHT22;66299;47.514;19.218;2023-04-01T03:30:07;7.65;99.99
68189;DHT22;66299;47.514;19.218;2023-04-01T03:32:37;7.59;99.99
68189;DHT22;66299;47.514;19.218;2023-04-01T03:35:05;7.47;99.99
68189;DHT22;66299;47.514;19.218;2023-04-01T03:37:34;7.38;99.99
68189;DHT22;66299;47.514;19.218;2023-04-01T03:40:12;7.30;99.99
68189;DHT22;66299;47.514;19.218;2023-04-01T03:42:43;7.28;99.99
68189;DHT22;66299;47.514;19.218;2023-04-01T03:45:14;7.31;99.99
68189;DHT22;66299;47.514;19.218;2023-04-01T03:47:43;7.23;99.99
68189;DHT22;66299;47.514;19.218;2023-04-01T03:50:11;7.28;99.99
68189;DHT22;66299;47.514;19.218;2023-04-01T03:52:40;7.28;99.99
68189;DHT22;66299;47.514;19.218;2023-04-01T03:55:08;7.27;99.99
68189;DHT22;66299;47.514;19.218;2023-04-01T03:57:39;7.24;99.99
68189;DHT22;66299;47.514;19.218;2023-04-01T04:00:08;7.24;99.99
68189;DHT22;66299;47.514;19.218;2023-04-01T04:02:36;7.23;99.99
68189;DHT22;66299;47.514;19.218;2023-04-01T04:05:06;7.24;99.99
68189;DHT22;66299;47.514;19.218;2023-04-01T04:07:39;6.97;99.99
68189;DHT22;66299;47.514;19.218;2023-04-01T04:10:08;6.82;99.99
68189;DHT22;66299;47.514;19.218;2023-04-01T04:12:39;6.94;99.99
68189;DHT22;66299;47.514;19.218;2023-04-01T04:15:08;6.94;99.99
68189;DHT22;66299;47.514;19.218;2023-04-01T04:17:38;6.96;99.99
68189;DHT22;66299;47.514;19.218;2023-04-01T04:20:07;6.93;99.99
68189;DHT22;66299;47.514;19.218;2023-04-01T04:22:37;6.97;99.99
68189;DHT22;66299;47.514;19.218;2023-04-01T04:25:07;7.01;99.99
68189;DHT22;66299;47.514;19.218;2023-04-01T04:27:36;7.03;99.99
68189;DHT22;66299;47.514;19.218;2023-04-01T04:30:07;7.15;99.99
68189;DHT22;66299;47.514;19.218;2023-04-01T04:32:36;7.14;99.99
68189;DHT22;66299;47.514;19.218;2023-04-01T04:35:05;7.17;99.99
68189;DHT22;66299;47.514;19.218;2023-04-01T04:37:34;7.13;99.99
68189;DHT22;66299;47.514;19.218;2023-04-01T04:40:03;7.20;99.99
68189;DHT22;66299;47.514;19.218;2023-04-01T04:42:32;7.14;99.99
68189;DHT22;66299;47.514;19.218;2023-04-01T04:45:00;7.10;99.99
68189;DHT22;66299;47.514;19.218;2023-04-01T04:47:31;7.13;99.74
68189;DHT22;66299;47.514;19.218;2023-04-01T04:49:59;7.08;99.99
68189;DHT22;66299;47.514;19.218;2023-04-01T04:52:28;6.77;99.98
68189;DHT22;66299;47.514;19.218;2023-04-01T04:54:58;6.82;99.99
68189;DHT22;66299;47.514;19.218;2023-04-01T04:57:26;6.77;99.99
68189;DHT22;66299;47.514;19.218;2023-04-01T04:59:56;6.75;99.99
68189;DHT22;66299;47.514;19.218;2023-04-01T05:02:25;6.71;99.99
68189;DHT22;66299;47.514;19.218;2023-04-01T05:04:56;6.69;99.99
68189;DHT22;66299;47.514;19.218;2023-04-01T05:07:25;6.72;99.99
68189;DHT22;66299;47.514;19.218;2023-04-01T05:09:54;6.85;99.99
68189;DHT22;66299;47.514;19.218;2023-04-01T05:12:22;7.00;99.99
68189;DHT22;66299;47.514;19.218;2023-04-01T05:14:51;7.00;99.99
68189;DHT22;66299;47.514;19.218;2023-04-01T05:17:19;6.97;99.99
68189;DHT22;66299;47.514;19.218;2023-04-01T05:19:47;6.96;99.99
68189;DHT22;66299;47.514;19.218;2023-04-01T05:22:18;6.99;99.99
68189;DHT22;66299;47.514;19.218;2023-04-01T05:24:49;7.07;99.99
68189;DHT22;66299;47.514;19.218;2023-04-01T05:27:19;6.90;99.99
68189;DHT22;66299;47.514;19.218;2023-04-01T05:29:47;6.99;99.99
68189;DHT22;66299;47.514;19.218;2023-04-01T05:32:17;7.03;99.99
68189;DHT22;66299;47.514;19.218;2023-04-01T05:34:46;7.10;99.99
68189;DHT22;66299;47.514;19.218;2023-04-01T05:37:19;7.11;99.99
68189;DHT22;66299;47.514;19.218;2023-04-01T05:39:48;7.36;99.51
68189;DHT22;66299;47.514;19.218;2023-04-01T05:42:16;7.40;99.60
68189;DHT22;66299;47.514;19.218;2023-04-01T05:44:46;7.63;98.77
68189;DHT22;66299;47.514;19.218;2023-04-01T05:47:16;7.62;98.49
68189;DHT22;66299;47.514;19.218;2023-04-01T05:49:45;7.69;99.12
68189;DHT22;66299;47.514;19.218;2023-04-01T05:52:16;7.78;98.58
68189;DHT22;66299;47.514;19.218;2023-04-01T05:54:47;7.85;98.71
68189;DHT22;66299;47.514;19.218;2023-04-01T05:57:16;7.90;97.84
68189;DHT22;66299;47.514;19.218;2023-04-01T05:59:44;7.97;98.39
68189;DHT22;66299;47.514;19.218;2023-04-01T06:02:16;7.87;98.72
68189;DHT22;66299;47.514;19.218;2023-04-01T06:04:45;8.33;97.17
68189;DHT22;66299;47.514;19.218;2023-04-01T06:07:16;8.83;93.70
68189;DHT22;66299;47.514;19.218;2023-04-01T06:09:46;9.03;94.07
68189;DHT22;66299;47.514;19.218;2023-04-01T06:12:29;9.47;89.45
68189;DHT22;66299;47.514;19.218;2023-04-01T06:15:13;9.54;89.15
68189;DHT22;66299;47.514;19.218;2023-04-01T06:18:03;9.57;88.82
68189;DHT22;66299;47.514;19.218;2023-04-01T06:20:42;9.82;87.18
68189;DHT22;66299;47.514;19.218;2023-04-01T06:23:22;9.84;87.67
68189;DHT22;66299;47.514;19.218;2023-04-01T06:26:02;9.99;86.01
68189;DHT22;66299;47.514;19.218;2023-04-01T06:28:58;10.02;85.61
68189;DHT22;66299;47.514;19.218;2023-04-01T06:31:39;10.03;85.17
68189;DHT22;66299;47.514;19.218;2023-04-01T06:34:50;10.19;83.36
68189;DHT22;66299;47.514;19.218;2023-04-01T06:37:32;10.26;84.00
68189;DHT22;66299;47.514;19.218;2023-04-01T06:40:18;10.34;83.18
68189;DHT22;66299;47.514;19.218;2023-04-01T06:43:01;10.40;82.46
68189;DHT22;66299;47.514;19.218;2023-04-01T06:45:39;10.44;82.55
68189;DHT22;66299;47.514;19.218;2023-04-01T06:48:30;10.57;82.58
68189;DHT22;66299;47.514;19.218;2023-04-01T06:51:08;10.67;82.80
68189;DHT22;66299;47.514;19.218;2023-04-01T06:53:46;10.68;82.28
68189;DHT22;66299;47.514;19.218;2023-04-01T06:56:20;10.71;81.59
68189;DHT22;66299;47.514;19.218;2023-04-01T06:58:53;10.78;81.72
68189;DHT22;66299;47.514;19.218;2023-04-01T07:01:25;10.90;81.05
68189;DHT22;66299;47.514;19.218;2023-04-01T07:03:57;10.97;80.20
68189;DHT22;66299;47.514;19.218;2023-04-01T07:06:31;11.05;80.72
68189;DHT22;66299;47.514;19.218;2023-04-01T07:09:04;11.19;79.53
68189;DHT22;66299;47.514;19.218;2023-04-01T07:11:35;11.22;79.99
68189;DHT22;66299;47.514;19.218;2023-04-01T07:14:14;11.25;79.43
68189;DHT22;66299;47.514;19.218;2023-04-01T07:16:48;11.42;80.30
68189;DHT22;66299;47.514;19.218;2023-04-01T07:19:26;11.57;80.35
68189;DHT22;66299;47.514;19.218;2023-04-01T07:22:03;11.55;78.02
68189;DHT22;66299;47.514;19.218;2023-04-01T07:24:36;11.74;78.03
68189;DHT22;66299;47.514;19.218;2023-04-01T07:27:09;11.69;76.51
68189;DHT22;66299;47.514;19.218;2023-04-01T07:29:39;11.91;75.96
68189;DHT22;66299;47.514;19.218;2023-04-01T07:32:19;11.99;75.81
68189;DHT22;66299;47.514;19.218;2023-04-01T07:34:59;11.97;75.51
68189;DHT22;66299;47.514;19.218;2023-04-01T07:37:37;12.05;74.83
68189;DHT22;66299;47.514;19.218;2023-04-01T07:40:17;12.10;74.73
68189;DHT22;66299;47.514;19.218;2023-04-01T07:43:05;12.24;74.10
68189;DHT22;66299;47.514;19.218;2023-04-01T07:45:40;12.42;74.43
68189;DHT22;66299;47.514;19.218;2023-04-01T07:48:20;12.41;72.68
68189;DHT22;66299;47.514;19.218;2023-04-01T07:55:04;12.67;72.59
68189;DHT22;66299;47.514;19.218;2023-04-01T07:57:40;12.35;72.11
68189;DHT22;66299;47.514;19.218;2023-04-01T08:00:16;12.48;71.97
68189;DHT22;66299;47.514;19.218;2023-04-01T08:03:02;12.62;72.90
68189;DHT22;66299;47.514;19.218;2023-04-01T08:05:40;12.67;72.71
68189;DHT22;66299;47.514;19.218;2023-04-01T08:08:18;12.41;72.86
68189;DHT22;66299;47.514;19.218;2023-04-01T08:10:49;12.41;73.24
68189;DHT22;66299;47.514;19.218;2023-04-01T08:13:26;12.63;72.63
68189;DHT22;66299;47.514;19.218;2023-04-01T08:16:03;12.45;73.01
68189;DHT22;66299;47.514;19.218;2023-04-01T08:18:43;12.77;72.21
68189;DHT22;66299;47.514;19.218;2023-04-01T08:21:15;12.65;72.75
68189;DHT22;66299;47.514;19.218;2023-04-01T08:23:47;12.73;72.00
68189;DHT22;66299;47.514;19.218;2023-04-01T08:26:26;12.49;72.03
68189;DHT22;66299;47.514;19.218;2023-04-01T08:29:02;13.18;72.38
68189;DHT22;66299;47.514;19.218;2023-04-01T08:31:36;13.32;71.94
68189;DHT22;66299;47.514;19.218;2023-04-01T08:34:12;13.08;72.17
68189;DHT22;66299;47.514;19.218;2023-04-01T08:36:48;12.72;71.34
68189;DHT22;66299;47.514;19.218;2023-04-01T08:39:28;12.67;72.25
68189;DHT22;66299;47.514;19.218;2023-04-01T08:45:14;12.69;71.52
68189;DHT22;66299;47.514;19.218;2023-04-01T08:54:02;12.62;71.69
68189;DHT22;66299;47.514;19.218;2023-04-01T08:56:36;12.80;71.16
68189;DHT22;66299;47.514;19.218;2023-04-01T08:59:23;12.84;71.73
68189;DHT22;66299;47.514;19.218;2023-04-01T09:02:15;12.77;71.03
68189;DHT22;66299;47.514;19.218;2023-04-01T09:07:57;13.27;70.27
68189;DHT22;66299;47.514;19.218;2023-04-01T09:13:50;13.28;69.10
68189;DHT22;66299;47.514;19.218;2023-04-01T09:16:31;12.76;69.43
68189;DHT22;66299;47.514;19.218;2023-04-01T09:19:24;13.11;70.10
68189;DHT22;66299;47.514;19.218;2023-04-01T09:22:10;13.08;69.74
68189;DHT22;66299;47.514;19.218;2023-04-01T09:27:53;12.89;70.68
68189;DHT22;66299;47.514;19.218;2023-04-01T09:31:04;12.99;71.35
68189;DHT22;66299;47.514;19.218;2023-04-01T09:34:15;13.68;70.54
68189;DHT22;66299;47.514;19.218;2023-04-01T09:37:01;13.40;69.84
68189;DHT22;66299;47.514;19.218;2023-04-01T09:39:36;13.15;69.73
68189;DHT22;66299;47.514;19.218;2023-04-01T09:42:22;12.80;69.79
68189;DHT22;66299;47.514;19.218;2023-04-01T09:44:59;12.96;69.36
68189;DHT22;66299;47.514;19.218;2023-04-01T09:47:45;12.83;70.30
